Time;durP1;ratioP1;P1;durP2;ratioP2;P2;SDS_P1;SDS_P2;PMS_P1;PMS_P2;Temp;Humidity;BMP_temperature;BMP_pressure;BME280_temperature;BME280_humidity;BME280_pressure;Samples;Min_cycle;Max_cycle;Signal;HPM_P1;HPM_P2
2023/06/30 00:00:01;;;;;;;0.80;0.80;;;;;;;21.71;100.00;100054.16;5073270;28;20199;-74
2023/06/30 00:02:27;;;;;;;0.65;0.65;;;;;;;21.77;100.00;100084.78;5054808;28;20573;-74
2023/06/30 00:04:54;;;;;;;0.70;0.70;;;;;;;21.83;100.00;100079.31;5073170;28;20203;-75
2023/06/30 00:07:21;;;;;;;0.70;0.70;;;;;;;21.72;100.00;100068.25;5037341;28;20211;-74
2023/06/30 00:09:50;;;;;;;0.70;0.70;;;;;;;21.81;100.00;100080.28;5073065;28;20286;-74
2023/06/30 00:12:18;;;;;;;0.70;0.70;;;;;;;21.92;100.00;100079.06;5073367;28;20202;-74
2023/06/30 00:14:45;;;;;;;0.70;0.70;;;;;;;21.34;100.00;99987.59;5072924;28;20199;-74
2023/06/30 00:17:11;;;;;;;0.68;0.68;;;;;;;21.88;100.00;100081.81;5072773;28;20559;-75
2023/06/30 00:19:38;;;;;;;0.70;0.70;;;;;;;21.96;100.00;100079.84;5073313;28;20199;-75
2023/06/30 00:22:06;;;;;;;0.63;0.63;;;;;;;22.02;100.00;100079.63;5072823;28;20210;-75
2023/06/30 00:24:33;;;;;;;0.70;0.70;;;;;;;21.84;100.00;100081.03;5072957;28;20218;-75
2023/06/30 00:26:59;;;;;;;0.70;0.70;;;;;;;21.79;100.00;100088.25;5072935;28;20226;-74
2023/06/30 00:29:28;;;;;;;0.80;0.80;;;;;;;21.79;100.00;100085.63;5053167;28;20199;-74
2023/06/30 00:31:54;;;;;;;0.70;0.70;;;;;;;21.64;100.00;100088.72;5052896;28;20606;-75
2023/06/30 00:34:21;;;;;;;0.60;0.60;;;;;;;21.64;100.00;100088.72;5066192;28;20689;-74
2023/06/30 00:36:48;;;;;;;0.70;0.70;;;;;;;21.62;100.00;100088.75;5072859;28;20206;-74
2023/06/30 00:39:15;;;;;;;0.70;0.70;;;;;;;21.55;100.00;100095.13;5072815;28;20202;-74
2023/06/30 00:41:42;;;;;;;0.60;0.60;;;;;;;21.65;100.00;100090.44;5072713;28;20202;-74
2023/06/30 00:44:08;;;;;;;0.80;0.80;;;;;;;21.47;100.00;100069.88;5072809;28;20206;-75
2023/06/30 01:17:10;;;;;;;0.60;0.60;;;;;;;21.29;100.00;100066.00;5108089;27;21119;-68
2023/06/30 01:19:44;;;;;;;0.68;0.68;;;;;;;21.41;100.00;100076.19;5068561;28;20205;-69
2023/06/30 01:22:19;;;;;;;0.60;0.60;;;;;;;20.75;100.00;99990.19;5093510;28;20189;-68
2023/06/30 01:24:49;;;;;;;0.70;0.70;;;;;;;20.98;100.00;100046.63;5107839;28;20221;-69
2023/06/30 01:27:16;;;;;;;0.68;0.68;;;;;;;21.03;100.00;100044.75;5088754;28;20201;-69
2023/06/30 01:29:44;;;;;;;0.63;0.63;;;;;;;20.99;100.00;100043.09;5107611;28;20676;-69
2023/06/30 01:32:16;;;;;;;0.60;0.60;;;;;;;21.02;100.00;100059.69;5107792;28;20200;-68
2023/06/30 01:34:43;;;;;;;0.88;0.88;;;;;;;20.94;100.00;100056.41;5107704;28;20590;-69
2023/06/30 01:37:10;;;;;;;0.70;0.70;;;;;;;20.74;100.00;100061.34;5071921;28;20206;-69
2023/06/30 01:39:37;;;;;;;0.60;0.60;;;;;;;20.88;100.00;100048.66;5107194;28;20204;-69
2023/06/30 01:42:05;;;;;;;0.60;0.60;;;;;;;20.85;100.00;100051.41;5107525;28;20262;-69
2023/06/30 01:44:32;;;;;;;0.60;0.60;;;;;;;20.95;100.00;100065.19;5107729;28;20621;-69
2023/06/30 01:46:59;;;;;;;0.60;0.60;;;;;;;20.85;100.00;100064.56;5107133;28;20568;-69
2023/06/30 01:49:29;;;;;;;0.80;0.80;;;;;;;20.98;100.00;100055.41;5107250;28;20189;-69
2023/06/30 01:51:56;;;;;;;0.60;0.60;;;;;;;20.85;100.00;100032.06;5107067;28;20355;-69
2023/06/30 01:54:22;;;;;;;0.70;0.70;;;;;;;20.67;100.00;100051.88;5107583;28;20194;-68
2023/06/30 01:56:49;;;;;;;0.60;0.60;;;;;;;20.81;100.00;100055.00;5106974;28;20205;-68
2023/06/30 01:59:17;;;;;;;0.60;0.60;;;;;;;20.74;100.00;100049.03;5106837;28;20190;-68
2023/06/30 02:01:43;;;;;;;0.60;0.60;;;;;;;20.86;100.00;100042.59;5107219;28;20259;-69
2023/06/30 02:04:11;;;;;;;0.60;0.60;;;;;;;20.67;100.00;100028.16;5107047;28;20679;-69
2023/06/30 02:06:39;;;;;;;0.60;0.60;;;;;;;20.79;100.00;100043.66;5106509;28;20221;-69
2023/06/30 02:09:06;;;;;;;0.70;0.70;;;;;;;20.75;100.00;100050.78;5087397;28;20288;-69
2023/06/30 02:11:32;;;;;;;0.60;0.60;;;;;;;20.49;100.00;100044.47;5106888;28;20198;-68
2023/06/30 02:13:59;;;;;;;0.75;0.75;;;;;;;20.41;100.00;100030.63;5071168;28;20208;-68
2023/06/30 02:16:26;;;;;;;0.70;0.70;;;;;;;20.55;100.00;100024.09;5070647;28;20212;-69
2023/06/30 02:18:55;;;;;;;0.70;0.70;;;;;;;20.65;100.00;100056.34;5062571;28;20198;-69
2023/06/30 02:21:22;;;;;;;0.80;0.80;;;;;;;20.62;100.00;100056.41;5072827;28;20272;-69
2023/06/30 02:23:50;;;;;;;0.60;0.60;;;;;;;20.75;100.00;100053.41;5072974;28;20572;-68
2023/06/30 02:26:16;;;;;;;0.60;0.60;;;;;;;20.63;100.00;100052.88;5072744;28;20223;-69
2023/06/30 02:28:43;;;;;;;0.60;0.60;;;;;;;20.35;100.00;100041.31;5072549;28;20216;-69
2023/06/30 02:31:10;;;;;;;0.60;0.60;;;;;;;20.40;100.00;100042.94;5070921;28;20214;-68
2023/06/30 02:33:37;;;;;;;0.68;0.68;;;;;;;20.46;100.00;100063.84;5072837;28;20214;-68
2023/06/30 02:36:04;;;;;;;0.70;0.70;;;;;;;20.41;100.00;100057.81;5072528;28;20205;-69
2023/06/30 02:38:31;;;;;;;0.70;0.70;;;;;;;20.40;100.00;100060.50;5069691;28;20214;-69
2023/06/30 02:40:59;;;;;;;0.60;0.60;;;;;;;20.52;100.00;100058.41;5047959;28;20257;-68
2023/06/30 02:43:26;;;;;;;0.70;0.70;;;;;;;20.47;100.00;100064.72;5072138;28;20202;-69
2023/06/30 02:45:53;;;;;;;0.60;0.60;;;;;;;19.98;100.00;99989.53;5071511;28;20225;-69
2023/06/30 02:48:20;;;;;;;0.63;0.63;;;;;;;20.40;100.00;100060.50;5071520;28;20199;-69
2023/06/30 02:50:46;;;;;;;0.70;0.70;;;;;;;20.37;100.00;100060.59;5071987;28;20191;-69
2023/06/30 02:53:13;;;;;;;0.60;0.60;;;;;;;20.33;100.00;100059.81;5071986;28;20290;-69
2023/06/30 02:55:40;;;;;;;0.73;0.73;;;;;;;20.38;100.00;100068.44;5071951;28;20198;-69
2023/06/30 02:58:08;;;;;;;0.70;0.70;;;;;;;20.47;100.00;100059.44;5071352;28;20352;-68
2023/06/30 03:00:36;;;;;;;0.60;0.60;;;;;;;20.57;100.00;100067.09;5071798;28;20202;-69
2023/06/30 03:03:04;;;;;;;0.70;0.70;;;;;;;20.39;100.00;100058.78;5072048;28;20281;-69
2023/06/30 03:05:33;;;;;;;0.60;0.60;;;;;;;20.58;100.00;100065.31;5069642;28;20225;-69
2023/06/30 03:08:00;;;;;;;0.60;0.60;;;;;;;20.49;100.00;100065.53;5071284;28;20201;-69
2023/06/30 03:10:27;;;;;;;0.70;0.70;;;;;;;20.50;100.00;100067.28;5071901;28;20595;-68
2023/06/30 03:12:54;;;;;;;0.60;0.60;;;;;;;20.56;100.00;100054.81;5049490;28;20549;-69
2023/06/30 03:15:22;;;;;;;0.70;0.70;;;;;;;21.11;100.00;100069.16;5070024;28;20965;-69
2023/06/30 03:17:49;;;;;;;0.70;0.70;;;;;;;21.49;100.00;100070.69;5109700;28;20204;-68
2023/06/30 03:20:16;;;;;;;0.60;0.60;;;;;;;21.76;100.00;100061.94;5111924;28;20197;-69
2023/06/30 03:22:43;;;;;;;0.70;0.70;;;;;;;22.12;100.00;100059.94;5092638;28;20687;-70
2023/06/30 03:25:10;;;;;;;0.60;0.60;;;;;;;22.38;100.00;100077.56;5111826;28;20205;-69
2023/06/30 03:27:37;;;;;;;0.50;0.50;;;;;;;22.66;98.57;100073.09;5110845;28;20189;-70
2023/06/30 03:30:04;;;;;;;0.60;0.60;;;;;;;22.30;95.80;100008.28;5111003;28;20246;-69
2023/06/30 03:32:32;;;;;;;0.63;0.63;;;;;;;22.69;95.73;100059.78;5111895;28;20743;-70
2023/06/30 03:35:02;;;;;;;0.60;0.60;;;;;;;22.67;96.61;100077.50;5111696;28;20655;-69
2023/06/30 03:37:29;;;;;;;0.70;0.70;;;;;;;22.84;94.54;100058.41;5109131;28;20197;-69
2023/06/30 03:39:56;;;;;;;4.28;1.02;;;;;;;23.18;93.02;100080.09;5111221;28;20663;-70
2023/06/30 03:42:23;;;;;;;0.60;0.60;;;;;;;23.46;89.53;100077.31;5111752;28;20212;-70
2023/06/30 03:44:50;;;;;;;0.70;0.70;;;;;;;23.69;88.01;100077.28;5111876;28;20217;-70
2023/06/30 03:47:16;;;;;;;1.38;1.38;;;;;;;24.04;85.14;100082.06;5111188;28;20270;-70
2023/06/30 03:49:44;;;;;;;0.73;0.73;;;;;;;24.27;83.33;100088.25;5111290;28;20262;-69
2023/06/30 03:52:11;;;;;;;0.90;0.90;;;;;;;23.95;84.39;100058.59;5111881;28;20696;-69
2023/06/30 03:54:38;;;;;;;0.60;0.60;;;;;;;24.45;82.32;100082.19;5111698;28;20552;-70
2023/06/30 03:57:05;;;;;;;0.60;0.60;;;;;;;24.55;79.98;100083.53;5086819;28;20732;-70
2023/06/30 03:59:32;;;;;;;0.93;0.93;;;;;;;24.78;78.46;100090.50;5109056;28;20202;-70
2023/06/30 04:01:59;;;;;;;0.70;0.70;;;;;;;24.90;78.04;100090.88;5111089;28;20287;-69
2023/06/30 04:04:26;;;;;;;0.60;0.60;;;;;;;24.55;78.65;100072.91;5111053;28;20197;-70
2023/06/30 04:06:54;;;;;;;0.70;0.70;;;;;;;24.73;78.39;100082.75;5110754;28;20229;-70
2023/06/30 04:09:21;;;;;;;0.50;0.50;;;;;;;25.34;76.01;100085.38;5110993;28;20579;-70
2023/06/30 04:11:48;;;;;;;0.60;0.60;;;;;;;25.79;71.24;100085.09;5111179;28;20229;-69
2023/06/30 04:14:15;;;;;;;0.60;0.60;;;;;;;25.91;71.58;100076.53;5110701;28;20675;-70
2023/06/30 04:16:41;;;;;;;0.52;0.52;;;;;;;25.98;69.02;100070.84;5110854;28;20225;-69
2023/06/30 04:19:08;;;;;;;0.50;0.50;;;;;;;26.41;66.79;100056.34;5075289;28;20193;-70
2023/06/30 04:21:35;;;;;;;0.50;0.50;;;;;;;26.56;66.04;100070.66;5086628;28;20650;-70
2023/06/30 04:24:03;;;;;;;0.60;0.60;;;;;;;27.44;62.96;100071.34;5091905;28;20254;-70
2023/06/30 04:26:31;;;;;;;0.70;0.70;;;;;;;27.61;61.85;100083.78;5091279;28;20260;-69
2023/06/30 04:28:58;;;;;;;0.47;0.47;;;;;;;28.05;59.34;100085.69;5110070;28;20296;-69
2023/06/30 04:31:26;;;;;;;0.50;0.50;;;;;;;28.39;56.55;100081.97;5097926;28;20193;-69
2023/06/30 04:33:53;;;;;;;0.50;0.50;;;;;;;28.39;56.50;100078.44;5110874;28;20542;-70
2023/06/30 04:36:20;;;;;;;0.50;0.50;;;;;;;28.08;56.62;100069.53;5109944;28;20208;-70
2023/06/30 04:38:48;;;;;;;0.50;0.50;;;;;;;28.72;54.28;100089.81;5110231;28;20288;-70
2023/06/30 04:41:16;;;;;;;0.50;0.50;;;;;;;28.18;55.37;100074.34;5092567;28;20197;-69
2023/06/30 04:43:44;;;;;;;0.50;0.50;;;;;;;27.96;57.61;100099.53;5059574;28;20587;-70
2023/06/30 04:46:11;;;;;;;0.50;0.50;;;;;;;27.65;56.54;100032.88;5099702;28;20225;-70
2023/06/30 04:48:37;;;;;;;0.45;0.45;;;;;;;27.48;56.87;100015.19;5110327;28;20209;-70
2023/06/30 04:51:04;;;;;;;0.50;0.50;;;;;;;28.48;55.98;100109.91;5110318;28;20197;-71
2023/06/30 04:53:31;;;;;;;0.50;0.50;;;;;;;28.17;55.66;100112.63;5110496;28;20572;-70
2023/06/30 04:55:58;;;;;;;0.70;0.70;;;;;;;28.42;55.38;100113.81;5105371;28;20221;-70
2023/06/30 04:58:26;;;;;;;0.50;0.50;;;;;;;28.69;54.52;100114.03;5099007;28;20204;-70
2023/06/30 05:00:55;;;;;;;0.57;0.57;;;;;;;28.98;53.70;100120.31;5107511;28;20591;-71
2023/06/30 05:03:21;;;;;;;0.50;0.50;;;;;;;29.46;53.16;100116.50;5094056;28;20197;-70
2023/06/30 05:05:48;;;;;;;0.60;0.60;;;;;;;29.85;52.22;100108.66;5109402;28;20232;-68
2023/06/30 05:08:15;;;;;;;0.50;0.50;;;;;;;30.70;48.96;100119.09;5110211;28;20205;-72
2023/06/30 05:10:42;;;;;;;0.50;0.50;;;;;;;30.05;48.44;100120.75;5084805;28;20244;-69
2023/06/30 05:13:09;;;;;;;0.50;0.50;;;;;;;30.46;49.20;100124.28;5108839;28;20204;-70
2023/06/30 05:15:37;;;;;;;0.50;0.50;;;;;;;30.06;48.07;100060.94;5110095;28;20228;-70
2023/06/30 05:18:05;;;;;;;0.60;0.60;;;;;;;29.94;50.91;100134.81;5095900;28;20209;-69
2023/06/30 05:20:33;;;;;;;0.57;0.57;;;;;;;29.76;50.50;100130.59;5103512;28;20720;-70
2023/06/30 05:23:00;;;;;;;0.40;0.40;;;;;;;29.81;50.48;100130.31;5106276;28;20202;-70
2023/06/30 05:25:27;;;;;;;0.50;0.50;;;;;;;29.11;52.04;100123.94;5106681;28;20208;-70
2023/06/30 05:27:54;;;;;;;0.40;0.40;;;;;;;29.88;49.53;100129.84;5106076;28;20270;-70
2023/06/30 05:30:21;;;;;;;0.40;0.40;;;;;;;30.10;50.06;100123.13;5091338;28;20206;-70
2023/06/30 05:32:49;;;;;;;0.50;0.50;;;;;;;30.06;49.32;100129.63;5101248;28;20212;-70
2023/06/30 05:35:16;;;;;;;0.50;0.50;;;;;;;30.58;48.44;100125.25;5107757;28;20201;-69
2023/06/30 05:37:42;;;;;;;0.50;0.50;;;;;;;30.49;47.72;100125.91;5109496;28;20718;-71
2023/06/30 05:40:10;;;;;;;0.50;0.50;;;;;;;30.69;47.89;100130.75;5107173;28;20702;-70
2023/06/30 05:42:37;;;;;;;0.50;0.50;;;;;;;30.06;49.38;100100.19;5083834;28;20257;-70
2023/06/30 05:45:04;;;;;;;0.60;0.60;;;;;;;30.47;48.10;100133.16;5107712;28;20676;-69
2023/06/30 05:47:30;;;;;;;0.50;0.50;;;;;;;30.67;48.22;100122.00;5068015;28;20218;-70
2023/06/30 05:49:59;;;;;;;0.50;0.50;;;;;;;31.02;47.33;100124.13;5105530;28;20223;-70
2023/06/30 05:52:27;;;;;;;1.27;1.17;;;;;;;30.79;47.41;100126.50;5107061;28;20836;-73
2023/06/30 05:54:53;;;;;;;28.08;5.40;;;;;;;30.56;48.43;100127.19;5110159;28;20201;-71
2023/06/30 05:57:20;;;;;;;104.22;49.53;;;;;;;30.09;48.35;100122.25;5101723;28;20205;-71
2023/06/30 05:59:47;;;;;;;25.80;3.28;;;;;;;30.15;48.25;100129.00;5112430;28;20207;-69
2023/06/30 06:02:14;;;;;;;19.48;2.88;;;;;;;29.75;48.85;100128.84;5113789;28;20293;-70
2023/06/30 06:04:40;;;;;;;39.90;4.38;;;;;;;29.55;50.52;100137.28;5104574;28;20200;-70
2023/06/30 06:07:08;;;;;;;18.33;2.72;;;;;;;29.10;52.16;100121.38;5108619;28;20231;-69
2023/06/30 06:09:35;;;;;;;26.73;3.22;;;;;;;28.41;53.63;100098.75;5094327;28;20228;-70
2023/06/30 06:12:02;;;;;;;28.05;3.30;;;;;;;27.67;57.64;100120.75;5077672;28;20197;-70
2023/06/30 06:14:29;;;;;;;34.33;3.88;;;;;;;27.74;58.20;100109.66;5113299;28;20300;-70
2023/06/30 06:16:56;;;;;;;31.63;3.65;;;;;;;27.82;58.68;100135.91;5107813;28;20228;-70
2023/06/30 06:19:23;;;;;;;13.93;3.13;;;;;;;27.78;57.87;100113.03;5101482;28;20312;-70
2023/06/30 06:21:49;;;;;;;16.50;3.25;;;;;;;27.27;61.09;100116.66;5101832;28;20262;-70
2023/06/30 06:24:18;;;;;;;15.73;2.92;;;;;;;27.64;61.71;100132.44;5103758;28;20206;-70
2023/06/30 06:26:44;;;;;;;20.88;2.97;;;;;;;27.46;60.93;100118.31;5065625;28;20226;-70
2023/06/30 06:29:14;;;;;;;31.42;3.55;;;;;;;26.90;61.75;100123.91;5113064;28;20254;-70
2023/06/30 06:31:43;;;;;;;20.25;2.97;;;;;;;26.79;63.42;100056.19;5113308;28;20198;-70
2023/06/30 06:34:10;;;;;;;33.85;3.70;;;;;;;27.07;63.03;100126.56;5094989;28;20224;-70
2023/06/30 06:36:37;;;;;;;34.60;3.85;;;;;;;26.40;66.62;100123.75;5096969;28;20197;-78
2023/06/30 06:39:04;;;;;;;21.30;2.90;;;;;;;26.45;69.89;100123.53;5109799;28;20282;-70
2023/06/30 06:41:32;;;;;;;28.55;3.35;;;;;;;26.49;67.55;100118.00;5092210;28;20226;-70
2023/06/30 06:43:59;;;;;;;27.63;3.10;;;;;;;26.39;70.97;100122.03;5109068;28;20213;-70
2023/06/30 06:46:26;;;;;;;20.88;2.88;;;;;;;26.16;72.39;100098.31;5109571;28;20222;-70
2023/06/30 06:48:54;;;;;;;28.02;3.28;;;;;;;25.88;76.22;100129.81;5086716;28;20675;-70
2023/06/30 06:51:21;;;;;;;25.25;3.03;;;;;;;25.97;77.21;100129.41;5095827;28;20300;-70
2023/06/30 06:53:48;;;;;;;23.55;2.78;;;;;;;25.54;75.20;100126.06;5092634;28;20198;-70
2023/06/30 06:56:15;;;;;;;26.10;3.10;;;;;;;25.41;77.52;100121.34;5108650;28;20200;-69
2023/06/30 06:58:43;;;;;;;29.95;3.55;;;;;;;25.38;79.82;100108.22;5110485;28;20263;-70
2023/06/30 07:01:11;;;;;;;24.48;2.90;;;;;;;25.28;79.86;100090.97;5112799;27;20280;-70
2023/06/30 07:03:38;;;;;;;30.75;3.55;;;;;;;25.49;79.82;100121.88;5112396;28;20229;-70
2023/06/30 07:06:06;;;;;;;28.35;3.28;;;;;;;25.50;81.33;100120.94;5100425;28;20199;-70
2023/06/30 07:08:35;;;;;;;36.50;4.18;;;;;;;25.70;79.10;100120.91;5105057;28;20190;-70
2023/06/30 07:11:02;;;;;;;18.88;2.97;;;;;;;25.52;79.33;100105.81;5104176;28;20198;-70
2023/06/30 07:13:29;;;;;;;14.90;2.55;;;;;;;25.89;81.30;100129.75;5102049;28;20190;-70
2023/06/30 07:15:58;;;;;;;15.35;2.63;;;;;;;26.17;78.63;100120.47;5112483;28;20237;-70
2023/06/30 07:18:25;;;;;;;15.80;2.92;;;;;;;26.17;77.25;100115.16;5109112;28;20198;-70
2023/06/30 07:20:54;;;;;;;13.90;2.63;;;;;;;26.34;79.19;100124.06;5092150;28;20585;-70
2023/06/30 07:23:20;;;;;;;12.95;2.55;;;;;;;25.71;75.24;100058.91;5107103;28;20190;-69
2023/06/30 07:25:48;;;;;;;12.43;2.40;;;;;;;25.96;76.65;100130.31;5112198;28;20197;-69
2023/06/30 07:28:15;;;;;;;12.70;2.53;;;;;;;26.11;76.90;100125.13;5111880;28;20693;-70
2023/06/30 07:30:43;;;;;;;12.27;2.35;;;;;;;26.19;74.69;100123.94;5111829;28;20197;-69
2023/06/30 07:33:12;;;;;;;14.10;2.60;;;;;;;26.26;74.99;100128.00;5109394;28;20193;-69
2023/06/30 07:35:39;;;;;;;11.98;2.25;;;;;;;26.20;75.47;100117.69;5111715;28;20602;-70
2023/06/30 07:38:06;;;;;;;15.18;2.55;;;;;;;26.24;77.27;100108.63;5111682;28;20731;-69
2023/06/30 07:40:32;;;;;;;14.02;2.38;;;;;;;26.31;78.59;100113.56;5111787;28;20240;-69
2023/06/30 07:42:59;;;;;;;15.52;2.58;;;;;;;26.59;77.58;100097.97;5111684;28;20189;-69
2023/06/30 07:45:26;;;;;;;21.25;3.45;;;;;;;26.65;73.54;100099.44;5111513;28;20201;-70
2023/06/30 07:47:53;;;;;;;30.45;3.45;;;;;;;26.47;75.40;100105.72;5111537;28;20277;-69
2023/06/30 07:50:21;;;;;;;28.02;3.22;;;;;;;26.56;76.37;100079.50;5075785;28;20197;-71
2023/06/30 07:52:49;;;;;;;27.92;3.28;;;;;;;26.57;74.25;100104.31;5111572;28;20621;-69
2023/06/30 07:55:16;;;;;;;22.65;2.88;;;;;;;26.82;73.65;100111.91;5111572;28;20193;-69
2023/06/30 07:57:44;;;;;;;11.13;2.28;;;;;;;26.45;74.33;100065.88;5111370;28;20234;-69
2023/06/30 08:00:15;;;;;;;21.27;2.95;;;;;;;26.74;73.05;100104.31;5108848;28;20205;-68
2023/06/30 08:02:41;;;;;;;17.10;2.53;;;;;;;26.52;73.66;100093.91;5110166;28;20201;-68
2023/06/30 08:05:09;;;;;;;21.95;3.05;;;;;;;26.77;70.85;100112.13;5111694;28;20282;-69
2023/06/30 08:07:37;;;;;;;13.50;2.63;;;;;;;26.71;70.46;100096.50;5092475;28;20222;-69
2023/06/30 08:10:04;;;;;;;22.15;3.05;;;;;;;26.75;70.14;100103.38;5111425;28;20576;-69
2023/06/30 08:12:32;;;;;;;22.08;2.83;;;;;;;26.94;72.89;100105.97;5111395;28;20227;-69
2023/06/30 08:14:58;;;;;;;26.35;3.15;;;;;;;26.94;71.25;100104.16;5099887;28;20580;-70
2023/06/30 08:17:25;;;;;;;12.77;2.50;;;;;;;26.95;64.96;100105.91;5072657;28;20671;-69
2023/06/30 08:19:52;;;;;;;11.27;2.40;;;;;;;27.06;64.18;100098.22;5101226;28;20220;-69
2023/06/30 08:22:21;;;;;;;11.60;2.25;;;;;;;26.91;61.26;100099.00;5103407;28;20198;-69
2023/06/30 08:24:49;;;;;;;13.20;2.50;;;;;;;27.25;63.81;100097.25;5085022;28;20258;-69
2023/06/30 08:27:16;;;;;;;13.20;2.58;;;;;;;27.26;62.05;100098.94;5108365;28;20703;-69
2023/06/30 08:29:43;;;;;;;14.98;2.83;;;;;;;27.00;60.28;100098.53;5107915;28;20276;-69
2023/06/30 08:32:10;;;;;;;14.23;2.58;;;;;;;27.10;59.35;100097.13;5105955;28;20248;-69
2023/06/30 08:34:37;;;;;;;21.15;2.65;;;;;;;27.24;59.56;100096.38;5111195;28;20280;-68
2023/06/30 08:37:05;;;;;;;26.20;3.22;;;;;;;27.22;59.30;100100.09;5111043;28;20201;-68
2023/06/30 08:39:32;;;;;;;25.25;3.25;;;;;;;27.33;58.62;100089.69;5103014;28;20202;-69
2023/06/30 08:42:01;;;;;;;22.52;2.88;;;;;;;27.48;56.40;100105.75;5106037;28;20251;-69
2023/06/30 08:44:27;;;;;;;22.50;2.97;;;;;;;27.43;56.76;100101.59;5098380;28;20208;-69
2023/06/30 08:46:56;;;;;;;19.98;2.78;;;;;;;27.40;58.84;100081.28;5110989;28;20648;-68
2023/06/30 08:49:24;;;;;;;23.75;3.10;;;;;;;27.59;57.26;100102.50;5096602;28;20197;-69
2023/06/30 08:51:55;;;;;;;17.10;2.63;;;;;;;27.63;57.61;100096.06;5111119;28;20205;-69
2023/06/30 08:54:22;;;;;;;15.60;2.63;;;;;;;27.71;56.68;100099.19;5097035;28;20282;-69
2023/06/30 08:56:49;;;;;;;20.35;2.85;;;;;;;27.69;56.73;100090.41;5102264;28;20210;-69
2023/06/30 08:59:17;;;;;;;20.83;2.88;;;;;;;27.52;54.05;100074.47;5106567;28;20201;-69
2023/06/30 09:01:45;;;;;;;16.40;2.63;;;;;;;27.65;53.84;100088.00;5107702;28;20209;-70
2023/06/30 09:04:12;;;;;;;18.80;2.70;;;;;;;27.72;53.79;100087.56;5106676;28;20228;-70
2023/06/30 09:06:45;;;;;;;17.40;3.20;;;;;;;27.85;52.68;100091.28;5110910;28;20197;-69
2023/06/30 09:09:20;;;;;;;29.30;3.53;;;;;;;27.65;49.71;100062.19;5110560;28;20204;-68
2023/06/30 09:11:47;;;;;;;22.98;3.13;;;;;;;27.91;50.85;100085.59;5107686;28;20280;-68
2023/06/30 09:14:15;;;;;;;21.75;2.85;;;;;;;27.98;52.27;100078.97;5074218;28;20680;-69
2023/06/30 09:16:43;;;;;;;18.95;2.72;;;;;;;27.90;50.68;100073.22;5104965;28;20229;-69
2023/06/30 09:19:10;;;;;;;13.35;2.47;;;;;;;27.82;50.04;100072.81;5102395;28;20707;-69
2023/06/30 09:21:38;;;;;;;10.18;2.05;;;;;;;27.82;50.58;100062.13;5106271;28;20197;-69
2023/06/30 09:24:05;;;;;;;10.60;2.22;;;;;;;28.16;50.61;100076.25;5101168;28;20576;-69
2023/06/30 09:26:32;;;;;;;11.95;2.33;;;;;;;28.18;47.38;100077.03;5093990;28;20628;-69
2023/06/30 09:28:59;;;;;;;13.25;2.50;;;;;;;28.14;47.42;100070.16;5103426;28;20221;-69
2023/06/30 09:31:30;;;;;;;12.63;2.47;;;;;;;28.12;48.03;100069.34;5099003;28;20213;-70
2023/06/30 09:34:10;;;;;;;12.45;2.47;;;;;;;27.93;48.99;100048.22;5083190;28;20284;-69
2023/06/30 09:36:37;;;;;;;11.25;2.42;;;;;;;28.20;49.23;100056.44;5114371;28;20220;-69
2023/06/30 09:39:07;;;;;;;10.43;2.67;;;;;;;28.46;47.79;100058.47;5106344;28;20652;-68
2023/06/30 09:41:34;;;;;;;6.03;1.83;;;;;;;28.39;46.79;100051.78;5094181;28;20209;-68
2023/06/30 09:44:01;;;;;;;8.52;2.30;;;;;;;28.35;44.95;100052.91;5114653;28;20209;-68
2023/06/30 09:46:28;;;;;;;7.95;2.28;;;;;;;28.37;43.72;100051.00;5065701;28;20213;-68
2023/06/30 09:48:55;;;;;;;3.03;1.60;;;;;;;28.53;42.97;100051.81;5093732;28;20253;-68
2023/06/30 09:51:23;;;;;;;4.95;2.15;;;;;;;28.60;44.37;100050.50;5105236;28;20711;-69
2023/06/30 09:53:52;;;;;;;6.15;2.20;;;;;;;28.44;44.49;100033.66;5099895;28;20201;-69
2023/06/30 09:56:20;;;;;;;7.63;2.35;;;;;;;28.64;42.88;100053.84;5114113;28;20284;-74
2023/06/30 09:58:47;;;;;;;10.85;2.53;;;;;;;28.66;43.69;100050.13;5099651;28;20281;-75
2023/06/30 10:01:18;;;;;;;15.38;3.00;;;;;;;28.80;43.66;100063.53;5114166;28;20197;-74
2023/06/30 10:03:49;;;;;;;5.38;2.03;;;;;;;28.78;44.20;100053.91;5077145;28;20213;-73
2023/06/30 10:06:17;;;;;;;15.93;2.67;;;;;;;28.90;47.23;100046.00;5101733;28;20220;-76
2023/06/30 10:08:46;;;;;;;13.20;2.38;;;;;;;29.00;45.07;100044.47;5099429;28;20622;-73
2023/06/30 10:11:13;;;;;;;18.70;2.80;;;;;;;28.92;45.02;100025.44;5107420;28;20653;-74
2023/06/30 10:13:42;;;;;;;14.73;2.60;;;;;;;28.92;44.51;100045.94;5093362;28;20251;-75
2023/06/30 10:16:10;;;;;;;15.85;2.45;;;;;;;28.56;46.63;100032.94;5093178;28;20222;-73
2023/06/30 10:18:42;;;;;;;14.15;2.35;;;;;;;28.49;45.92;100031.59;5105143;28;20205;-74
2023/06/30 10:21:09;;;;;;;20.50;3.03;;;;;;;28.46;46.32;100021.13;5095052;28;20206;-73
2023/06/30 10:23:38;;;;;;;16.00;2.50;;;;;;;28.65;46.29;100036.84;5093338;28;20213;-73
2023/06/30 10:26:07;;;;;;;14.93;2.33;;;;;;;28.54;46.03;100019.69;5093271;28;20201;-72
2023/06/30 10:28:35;;;;;;;15.18;2.45;;;;;;;28.66;45.84;100019.91;5092868;28;20253;-72
2023/06/30 10:31:02;;;;;;;12.45;2.13;;;;;;;28.53;50.16;100018.00;5103196;28;20236;-72
2023/06/30 10:33:29;;;;;;;13.68;2.40;;;;;;;28.69;46.31;100025.94;5113995;28;20232;-71
2023/06/30 10:35:57;;;;;;;17.08;2.78;;;;;;;28.74;45.31;100026.53;5113906;28;20193;-71
2023/06/30 10:38:25;;;;;;;15.68;2.67;;;;;;;28.66;47.17;100028.78;5113523;28;20217;-71
2023/06/30 10:41:14;;;;;;;14.43;2.42;;;;;;;28.92;47.14;100027.22;5113511;28;20194;-70
2023/06/30 10:44:05;;;;;;;14.27;2.60;;;;;;;28.72;46.79;100028.44;5113667;28;20197;-71
2023/06/30 10:46:46;;;;;;;16.27;2.53;;;;;;;28.64;46.63;100022.69;5113535;28;20225;-70
2023/06/30 10:49:18;;;;;;;17.10;2.75;;;;;;;28.58;47.58;99991.00;5029613;28;20256;-70
2023/06/30 10:51:46;;;;;;;14.95;2.58;;;;;;;28.82;48.46;100018.94;5113364;28;20225;-70
2023/06/30 10:54:21;;;;;;;13.73;2.28;;;;;;;28.83;47.41;100020.63;5113388;28;20590;-71
2023/06/30 10:56:50;;;;;;;16.42;2.92;;;;;;;28.96;47.37;100013.63;5113281;28;20243;-71
2023/06/30 10:59:22;;;;;;;13.50;2.53;;;;;;;29.02;46.63;100015.03;5077686;28;20201;-69
2023/06/30 11:02:12;;;;;;;17.45;2.78;;;;;;;28.72;47.48;100007.06;5113133;28;20224;-69
2023/06/30 11:04:39;;;;;;;19.65;2.83;;;;;;;28.70;47.34;99995.66;5113262;28;20629;-69
2023/06/30 11:07:07;;;;;;;19.73;2.92;;;;;;;28.68;48.82;100007.38;5113104;28;20562;-69
2023/06/30 11:10:02;;;;;;;18.92;2.92;;;;;;;29.04;47.59;99992.59;5113078;28;20253;-69
2023/06/30 11:12:51;;;;;;;14.68;2.40;;;;;;;28.90;47.03;99981.94;5112802;28;20578;-69
2023/06/30 11:15:35;;;;;;;16.20;2.58;;;;;;;28.68;47.76;99992.19;5112792;28;20265;-69
2023/06/30 11:18:03;;;;;;;15.07;2.55;;;;;;;29.04;47.89;99992.59;5112928;28;20301;-69
2023/06/30 11:20:30;;;;;;;12.65;2.28;;;;;;;29.30;47.25;99971.44;5112830;28;20651;-69
2023/06/30 11:23:00;;;;;;;14.00;2.28;;;;;;;29.29;45.18;99988.41;5112531;28;20667;-69
2023/06/30 11:25:28;;;;;;;16.90;2.47;;;;;;;29.04;46.68;99979.25;5112702;28;20236;-69
2023/06/30 11:27:56;;;;;;;15.50;2.50;;;;;;;28.92;47.15;99977.38;5112515;28;20727;-69
2023/06/30 11:30:24;;;;;;;16.75;2.55;;;;;;;28.71;47.16;99968.03;5112648;28;20724;-69
2023/06/30 11:32:58;;;;;;;17.35;2.78;;;;;;;28.80;48.11;99967.44;5112601;28;20201;-69
2023/06/30 11:35:26;;;;;;;16.45;2.65;;;;;;;28.69;47.15;99967.25;5112322;28;20244;-69
2023/06/30 11:37:53;;;;;;;15.02;2.63;;;;;;;28.58;45.67;99917.16;5112534;28;20687;-69
2023/06/30 11:40:21;;;;;;;17.42;2.78;;;;;;;29.04;46.63;99949.88;5093411;28;20593;-69
2023/06/30 11:42:48;;;;;;;17.15;2.53;;;;;;;28.95;44.70;99963.81;5112551;28;20552;-69
2023/06/30 11:45:19;;;;;;;14.90;2.45;;;;;;;28.99;43.77;99919.97;5076755;28;20208;-69
2023/06/30 11:47:48;;;;;;;13.90;2.15;;;;;;;29.12;42.86;99940.53;5112224;28;20201;-69
2023/06/30 11:50:15;;;;;;;14.85;2.53;;;;;;;29.24;43.43;99972.69;5111919;28;20269;-69
2023/06/30 11:52:42;;;;;;;11.32;2.25;;;;;;;29.05;43.83;99962.28;5112341;28;20676;-69